createdAt,value
2023-06-26T00:01:43.874Z,101025.61
2023-06-26T00:04:22.601Z,101023.81
2023-06-26T00:06:58.774Z,101017.45
2023-06-26T00:09:32.807Z,101015.40
2023-06-26T00:12:06.930Z,101017.63
2023-06-26T00:14:42.733Z,101018.32
2023-06-26T00:17:18.902Z,101018.61
2023-06-26T00:19:55.982Z,101015.15
2023-06-26T00:22:30.633Z,101020.10
2023-06-26T00:25:05.677Z,101018.08
2023-06-26T00:27:40.884Z,101015.17
2023-06-26T00:30:17.693Z,101014.03
2023-06-26T00:32:52.924Z,101010.94
2023-06-26T00:35:26.991Z,101010.17
2023-06-26T00:38:01.713Z,101011.89
2023-06-26T00:40:36.105Z,101007.91
2023-06-26T00:43:09.981Z,101010.98
2023-06-26T00:45:43.546Z,101010.83
2023-06-26T00:48:20.584Z,101014.73
2023-06-26T00:50:56.632Z,101016.14
2023-06-26T00:53:33.449Z,101015.91
2023-06-26T00:56:09.551Z,101012.99
2023-06-26T00:58:43.129Z,101013.13
2023-06-26T01:01:18.797Z,101013.28
2023-06-26T01:03:57.873Z,101012.13
2023-06-26T01:06:38.020Z,101010.59
2023-06-26T01:09:17.104Z,101009.84
2023-06-26T01:11:53.274Z,101010.07
2023-06-26T01:14:31.540Z,101012.65
2023-06-26T01:17:13.220Z,101005.27
2023-06-26T01:19:49.977Z,101004.11
2023-06-26T01:22:34.639Z,101006.19
2023-06-26T01:25:24.612Z,101009.12
2023-06-26T01:28:00.996Z,101009.16
2023-06-26T01:30:48.376Z,101007.86
2023-06-26T01:33:23.822Z,101008.83
2023-06-26T01:36:00.605Z,101008.05
2023-06-26T01:38:35.987Z,101006.93
2023-06-26T01:41:13.904Z,101003.80
2023-06-26T01:44:10.777Z,101002.48
2023-06-26T01:47:01.684Z,101000.50
2023-06-26T01:49:50.591Z,100998.94
2023-06-26T01:52:31.574Z,101002.75
2023-06-26T01:55:12.307Z,101000.24
2023-06-26T01:57:49.414Z,100998.55
2023-06-26T02:00:25.884Z,100998.26
2023-06-26T02:03:00.709Z,100994.16
2023-06-26T02:05:36.694Z,100991.75
2023-06-26T02:08:11.915Z,100987.70
2023-06-26T02:10:47.004Z,100984.52
2023-06-26T02:13:24.968Z,100979.75
2023-06-26T02:16:00.241Z,100983.34
2023-06-26T02:18:37.578Z,100985.17
2023-06-26T02:21:12.117Z,100984.52
2023-06-26T02:23:46.988Z,100982.85
2023-06-26T02:26:23.983Z,100978.10
2023-06-26T02:28:57.317Z,100976.75
2023-06-26T02:31:30.873Z,100979.47
2023-06-26T02:34:04.400Z,100982.01
2023-06-26T02:36:39.489Z,100977.33
2023-06-26T02:39:13.041Z,100978.70
2023-06-26T02:41:46.853Z,100978.63
2023-06-26T02:44:22.434Z,100982.52
2023-06-26T02:46:58.141Z,100984.09
2023-06-26T02:49:34.839Z,100984.57
2023-06-26T02:52:10.148Z,100979.52
2023-06-26T02:54:44.673Z,100981.46
2023-06-26T02:57:18.869Z,100982.52
2023-06-26T02:59:52.798Z,100982.35
2023-06-26T03:02:27.573Z,100986.59
2023-06-26T03:05:05.611Z,100986.59
2023-06-26T03:07:41.685Z,100986.77
2023-06-26T03:10:16.254Z,100987.08
2023-06-26T03:12:51.462Z,100987.23
2023-06-26T03:15:27.016Z,100990.89
2023-06-26T03:18:02.385Z,100990.92
2023-06-26T03:20:39.567Z,100991.63
2023-06-26T03:23:14.871Z,100991.11
2023-06-26T03:25:49.506Z,100988.24
2023-06-26T03:28:34.259Z,100986.21
2023-06-26T03:31:10.758Z,100982.63
2023-06-26T03:33:44.743Z,100981.14
2023-06-26T03:36:18.853Z,100978.99
2023-06-26T03:38:58.096Z,100979.04
2023-06-26T03:41:34.549Z,100982.17
2023-06-26T03:44:09.021Z,100979.30
2023-06-26T03:46:51.813Z,100980.37
2023-06-26T03:49:26.433Z,100980.44
2023-06-26T03:52:00.437Z,100979.75
2023-06-26T03:54:37.713Z,100980.39
2023-06-26T03:57:12.330Z,100982.60
2023-06-26T03:59:54.416Z,100981.27
2023-06-26T04:02:30.560Z,100983.06
2023-06-26T04:05:05.262Z,100983.51
2023-06-26T04:07:42.677Z,100978.48
2023-06-26T04:10:17.842Z,100976.33
2023-06-26T04:12:54.334Z,100978.30
2023-06-26T04:15:29.497Z,100982.17
2023-06-26T04:18:06.832Z,100976.61
2023-06-26T04:20:46.473Z,100978.19
2023-06-26T04:23:20.832Z,100972.68
2023-06-26T04:25:55.009Z,100969.34
2023-06-26T04:28:31.675Z,100968.20
2023-06-26T04:31:05.912Z,100965.06
2023-06-26T04:33:43.347Z,100964.59
2023-06-26T04:36:19.010Z,100966.44
2023-06-26T04:38:54.427Z,100970.43
2023-06-26T04:41:30.480Z,100969.50
2023-06-26T04:44:07.177Z,100972.22
2023-06-26T04:46:53.169Z,100966.30
2023-06-26T04:49:31.789Z,100964.16
2023-06-26T04:52:06.777Z,100963.08
2023-06-26T04:54:42.041Z,100960.13
2023-06-26T04:57:19.755Z,100955.16
2023-06-26T04:59:56.027Z,100959.92
2023-06-26T05:02:31.118Z,100960.54
2023-06-26T05:05:06.410Z,100960.96
2023-06-26T05:07:39.852Z,100960.50
2023-06-26T05:10:16.298Z,100960.22
2023-06-26T05:12:50.830Z,100958.79
2023-06-26T05:15:25.160Z,100957.95
2023-06-26T05:17:59.972Z,100952.91
2023-06-26T05:20:34.686Z,100956.21
2023-06-26T05:23:10.411Z,100952.48
2023-06-26T05:25:45.964Z,100951.62
2023-06-26T05:28:21.541Z,100948.26
2023-06-26T05:30:57.534Z,100947.70
2023-06-26T05:33:33.131Z,100946.63
2023-06-26T05:36:13.831Z,100948.06
2023-06-26T05:38:50.346Z,100950.38
2023-06-26T05:41:26.157Z,100945.50
2023-06-26T05:44:03.881Z,100944.66
2023-06-26T05:46:37.688Z,100945.81
2023-06-26T05:49:15.273Z,100945.64
2023-06-26T05:51:51.337Z,100937.97
2023-06-26T05:54:28.608Z,100936.89
2023-06-26T05:57:06.456Z,100932.39
2023-06-26T05:59:43.440Z,100931.12
2023-06-26T06:02:19.524Z,100927.83
2023-06-26T06:04:55.810Z,100926.21
2023-06-26T06:07:29.599Z,100921.99
2023-06-26T06:10:05.796Z,100923.41
2023-06-26T06:12:40.077Z,100921.55
2023-06-26T06:15:14.594Z,100924.13
2023-06-26T06:17:49.071Z,100924.20
2023-06-26T06:20:24.417Z,100918.95
2023-06-26T06:22:57.758Z,100916.23
2023-06-26T06:25:33.262Z,100918.73
2023-06-26T06:28:08.696Z,100917.45
2023-06-26T06:30:46.207Z,100917.27
2023-06-26T06:33:21.856Z,100913.70
2023-06-26T06:35:57.422Z,100913.60
2023-06-26T06:38:35.834Z,100912.20
2023-06-26T06:41:09.777Z,100909.95
2023-06-26T06:43:44.152Z,100904.45
2023-06-26T06:46:20.635Z,100905.36
2023-06-26T06:48:59.426Z,100906.34
2023-06-26T06:51:34.792Z,100901.70
2023-06-26T06:54:11.299Z,100897.59
2023-06-26T06:56:47.751Z,100901.21
2023-06-26T06:59:21.917Z,100897.80
2023-06-26T07:01:58.402Z,100897.80
2023-06-26T07:04:32.961Z,100895.80
2023-06-26T07:07:10.132Z,100899.55
2023-06-26T07:09:44.807Z,100899.34
2023-06-26T07:12:19.544Z,100903.84
2023-06-26T07:14:56.015Z,100906.17
2023-06-26T07:17:30.755Z,100905.08
2023-06-26T07:20:09.973Z,100904.88
2023-06-26T07:22:46.344Z,100905.03
2023-06-26T07:25:20.362Z,100906.29
2023-06-26T07:27:56.186Z,100905.38
2023-06-26T07:30:31.508Z,100903.02
2023-06-26T07:33:06.532Z,100901.56
2023-06-26T07:35:42.712Z,100902.09
2023-06-26T07:38:16.972Z,100900.65
2023-06-26T07:40:51.725Z,100902.27
2023-06-26T07:43:27.517Z,100895.74
2023-06-26T07:46:03.575Z,100893.22
2023-06-26T07:48:38.090Z,100892.68
2023-06-26T07:51:14.741Z,100893.04
2023-06-26T07:53:48.552Z,100889.63
2023-06-26T07:56:23.119Z,100886.77
2023-06-26T07:59:03.095Z,100886.59
2023-06-26T08:01:39.770Z,100887.13
2023-06-26T08:04:15.678Z,100883.90
2023-06-26T08:06:50.791Z,100882.13
2023-06-26T08:09:27.502Z,100885.21
2023-06-26T08:12:02.667Z,100884.31
2023-06-26T08:14:40.203Z,100884.70
2023-06-26T08:17:16.683Z,100878.23
2023-06-26T08:19:53.905Z,100874.64
2023-06-26T08:22:28.847Z,100868.15
2023-06-26T08:25:05.996Z,100871.77
2023-06-26T08:27:41.391Z,100866.55
2023-06-26T08:30:16.815Z,100863.51
2023-06-26T08:32:52.941Z,100864.45
2023-06-26T08:35:27.270Z,100862.29
2023-06-26T08:38:03.035Z,100855.61
2023-06-26T08:40:38.566Z,100858.69
2023-06-26T08:43:13.470Z,100855.44
2023-06-26T08:45:52.686Z,100857.42
2023-06-26T08:48:28.252Z,100852.92
2023-06-26T08:51:08.764Z,100853.98
2023-06-26T08:53:52.505Z,100849.84
2023-06-26T08:56:29.178Z,100848.75
2023-06-26T08:59:04.395Z,100848.23
2023-06-26T09:01:39.768Z,100847.14
2023-06-26T09:04:15.673Z,100845.51
2023-06-26T09:06:51.454Z,100840.99
2023-06-26T09:09:25.598Z,100836.30
2023-06-26T09:12:01.089Z,100838.64
2023-06-26T09:14:37.855Z,100837.20
2023-06-26T09:17:11.182Z,100833.22
2023-06-26T09:19:48.780Z,100832.84
2023-06-26T09:22:25.236Z,100830.86
2023-06-26T09:25:01.486Z,100827.95
2023-06-26T09:27:37.646Z,100825.77
2023-06-26T09:30:20.682Z,100827.04
2023-06-26T09:32:57.383Z,100829.40
2023-06-26T09:35:37.660Z,100828.31
2023-06-26T09:38:13.148Z,100826.66
2023-06-26T09:40:50.106Z,100827.19
2023-06-26T09:43:24.674Z,100822.27
2023-06-26T09:46:03.912Z,100819.73
2023-06-26T09:48:40.862Z,100822.02
2023-06-26T09:51:22.442Z,100816.41
2023-06-26T09:53:57.097Z,100814.61
2023-06-26T09:56:33.654Z,100815.66
2023-06-26T09:59:10.996Z,100813.83
2023-06-26T10:01:49.894Z,100809.45
2023-06-26T10:04:26.534Z,100804.88
2023-06-26T10:07:03.627Z,100800.52
2023-06-26T10:09:40.238Z,100798.37
2023-06-26T10:12:19.680Z,100793.52
2023-06-26T10:14:56.549Z,100790.05
2023-06-26T10:17:36.143Z,100786.44
2023-06-26T10:20:16.792Z,100783.58
2023-06-26T10:22:57.946Z,100783.25
2023-06-26T10:25:38.738Z,100782.35
2023-06-26T10:28:15.907Z,100781.44
2023-06-26T10:30:53.519Z,100779.43
2023-06-26T10:33:31.447Z,100774.98
2023-06-26T10:36:20.615Z,100772.30
2023-06-26T10:38:57.925Z,100771.38
2023-06-26T10:42:00.361Z,100771.88
2023-06-26T10:44:47.100Z,100767.66
2023-06-26T10:50:34.445Z,100762.83
2023-06-26T10:53:20.918Z,100757.06
2023-06-26T10:56:00.579Z,100754.66
2023-06-26T10:58:48.244Z,100749.78
2023-06-26T11:01:27.940Z,100748.48
2023-06-26T11:04:17.197Z,100743.94
2023-06-26T11:06:51.681Z,100745.69
2023-06-26T11:09:29.173Z,100747.25
2023-06-26T11:12:09.765Z,100746.83
2023-06-26T11:14:45.265Z,100743.52
2023-06-26T11:17:24.765Z,100735.90
2023-06-26T11:20:02.330Z,100737.85
2023-06-26T11:22:40.105Z,100732.73
2023-06-26T11:25:15.421Z,100723.48
2023-06-26T11:27:51.930Z,100725.23
2023-06-26T11:30:30.092Z,100726.23
2023-06-26T11:33:12.639Z,100729.01
2023-06-26T11:35:47.264Z,100727.33
2023-06-26T11:38:22.719Z,100722.41
2023-06-26T11:41:01.794Z,100721.79
2023-06-26T11:43:37.221Z,100724.79
2023-06-26T11:46:11.858Z,100722.73
2023-06-26T11:48:45.551Z,100717.23
2023-06-26T11:51:21.423Z,100714.13
2023-06-26T11:53:56.492Z,100713.72
2023-06-26T11:56:31.927Z,100716.70
2023-06-26T11:59:12.225Z,100710.67
2023-06-26T12:01:50.807Z,100710.08
2023-06-26T12:04:28.654Z,100709.27
2023-06-26T12:07:05.877Z,100703.57
2023-06-26T12:09:45.382Z,100699.88
2023-06-26T12:12:21.514Z,100695.70
2023-06-26T12:14:58.073Z,100698.77
2023-06-26T12:17:32.647Z,100693.70
2023-06-26T12:20:11.078Z,100691.36
2023-06-26T12:22:47.350Z,100690.34
2023-06-26T12:25:27.040Z,100684.59
2023-06-26T12:28:01.486Z,100684.84
2023-06-26T12:30:35.138Z,100681.46
2023-06-26T12:33:18.976Z,100678.81
2023-06-26T12:35:58.358Z,100675.27
2023-06-26T12:38:39.794Z,100671.49
2023-06-26T12:41:22.452Z,100668.27
2023-06-26T12:44:01.735Z,100663.17
2023-06-26T12:46:42.185Z,100664.25
2023-06-26T12:52:16.622Z,100659.80
2023-06-26T12:54:55.221Z,100653.66
2023-06-26T12:57:30.781Z,100652.10
2023-06-26T13:00:07.540Z,100649.41
2023-06-26T13:02:43.926Z,100650.45
2023-06-26T13:05:18.736Z,100645.77
2023-06-26T13:07:57.126Z,100642.63
2023-06-26T13:10:33.086Z,100638.56
2023-06-26T13:13:08.518Z,100633.60
2023-06-26T13:15:43.647Z,100633.70
2023-06-26T13:18:17.325Z,100631.61
2023-06-26T13:20:51.115Z,100628.31
2023-06-26T13:23:29.974Z,100625.08
2023-06-26T13:26:05.407Z,100626.41
2023-06-26T13:28:41.142Z,100622.35
2023-06-26T13:31:15.713Z,100621.00
2023-06-26T13:33:56.119Z,100613.92
2023-06-26T13:36:31.588Z,100610.48
2023-06-26T13:39:05.606Z,100606.66
2023-06-26T13:41:40.833Z,100607.61
2023-06-26T13:44:31.461Z,100599.64
2023-06-26T13:47:10.045Z,100593.15
2023-06-26T13:49:49.443Z,100589.70
2023-06-26T13:52:24.057Z,100591.11
2023-06-26T13:54:58.988Z,100581.96
2023-06-26T13:57:34.514Z,100574.88
2023-06-26T14:00:17.289Z,100570.31
2023-06-26T14:02:57.869Z,100566.40
2023-06-26T14:05:35.289Z,100558.77
2023-06-26T14:08:12.218Z,100556.84
2023-06-26T14:10:49.864Z,100555.73
2023-06-26T14:13:26.498Z,100553.13
2023-06-26T14:16:02.771Z,100547.24
2023-06-26T14:18:38.275Z,100546.33
2023-06-26T14:21:11.980Z,100546.67
2023-06-26T14:23:48.115Z,100544.06
2023-06-26T14:26:22.667Z,100536.89
2023-06-26T14:28:57.436Z,100529.19
2023-06-26T14:31:32.242Z,100525.73
2023-06-26T14:34:09.294Z,100519.10
2023-06-26T14:36:44.688Z,100516.77
2023-06-26T14:39:19.907Z,100512.20
2023-06-26T14:41:55.436Z,100513.20
2023-06-26T14:44:30.757Z,100510.88
2023-06-26T14:47:09.784Z,100511.11
2023-06-26T14:49:45.499Z,100508.29
2023-06-26T14:52:21.392Z,100505.30
2023-06-26T14:54:57.162Z,100500.86
2023-06-26T14:57:32.040Z,100495.58
2023-06-26T15:00:08.284Z,100498.63
2023-06-26T15:02:46.504Z,100496.54
2023-06-26T15:05:23.907Z,100493.42
2023-06-26T15:08:01.475Z,100489.70
2023-06-26T15:10:43.073Z,100486.50
2023-06-26T15:13:18.568Z,100486.46
2023-06-26T15:15:54.242Z,100481.54
2023-06-26T15:18:34.020Z,100479.65
2023-06-26T15:21:13.323Z,100476.96
2023-06-26T15:23:49.783Z,100470.05
2023-06-26T15:26:25.976Z,100465.70
2023-06-26T15:28:58.923Z,100467.64
2023-06-26T15:31:35.058Z,100467.83
2023-06-26T15:34:08.982Z,100469.09
2023-06-26T15:36:46.450Z,100463.86
2023-06-26T15:39:21.036Z,100462.81
2023-06-26T15:41:55.064Z,100462.59
2023-06-26T15:44:29.375Z,100460.79
2023-06-26T15:47:06.181Z,100457.80
2023-06-26T15:49:45.976Z,100455.26
2023-06-26T15:52:21.836Z,100452.30
2023-06-26T15:54:57.789Z,100455.02
2023-06-26T15:57:36.610Z,100453.67
2023-06-26T16:00:14.793Z,100450.27
2023-06-26T16:02:51.845Z,100447.33
2023-06-26T16:05:27.388Z,100447.61
2023-06-26T16:08:03.482Z,100438.86
2023-06-26T16:10:39.489Z,100434.26
2023-06-26T16:13:20.992Z,100432.02
2023-06-26T16:16:00.353Z,100432.02
2023-06-26T16:18:35.039Z,100430.05
2023-06-26T16:21:15.715Z,100428.43
2023-06-26T16:23:49.670Z,100428.46
2023-06-26T16:26:23.652Z,100430.73
2023-06-26T16:28:58.081Z,100431.20
2023-06-26T16:31:32.133Z,100427.86
2023-06-26T16:34:09.484Z,100429.02
2023-06-26T16:36:44.897Z,100430.52
2023-06-26T16:39:21.344Z,100424.64
2023-06-26T16:41:56.694Z,100422.91
2023-06-26T16:44:30.554Z,100418.56
2023-06-26T16:47:11.129Z,100416.95
2023-06-26T16:49:45.957Z,100413.36
2023-06-26T16:52:19.065Z,100414.09
2023-06-26T16:54:54.526Z,100411.55
2023-06-26T16:57:31.699Z,100407.04
2023-06-26T17:00:06.396Z,100404.85
2023-06-26T17:02:42.963Z,100405.55
2023-06-26T17:05:17.376Z,100401.39
2023-06-26T17:07:52.848Z,100401.09
2023-06-26T17:10:27.644Z,100402.73
2023-06-26T17:13:01.794Z,100404.35
2023-06-26T17:15:34.789Z,100404.56
2023-06-26T17:18:11.748Z,100407.45
2023-06-26T17:20:48.715Z,100409.69
2023-06-26T17:23:24.641Z,100409.02
2023-06-26T17:26:02.029Z,100412.84
2023-06-26T17:28:40.428Z,100412.10
2023-06-26T17:31:15.007Z,100416.27
2023-06-26T17:33:51.819Z,100410.80
2023-06-26T17:36:27.797Z,100413.29
2023-06-26T17:39:02.636Z,100414.72
2023-06-26T17:41:37.789Z,100412.67
2023-06-26T17:44:14.411Z,100412.97
2023-06-26T17:46:52.134Z,100412.71
2023-06-26T17:49:36.254Z,100410.83
2023-06-26T17:52:11.847Z,100409.84
2023-06-26T17:54:45.888Z,100407.01
2023-06-26T17:57:20.257Z,100401.86
2023-06-26T17:59:57.463Z,100396.35
2023-06-26T18:02:33.370Z,100390.50
2023-06-26T18:05:06.641Z,100386.98
2023-06-26T18:07:58.035Z,100386.38
2023-06-26T18:10:36.840Z,100387.76
2023-06-26T18:13:12.764Z,100390.03
2023-06-26T18:15:47.228Z,100385.58
2023-06-26T18:18:19.921Z,100385.81
2023-06-26T18:20:54.025Z,100386.08
2023-06-26T18:23:28.971Z,100385.60
2023-06-26T18:26:04.664Z,100387.48
2023-06-26T18:28:41.308Z,100388.63
2023-06-26T18:31:18.604Z,100391.59
2023-06-26T18:33:53.542Z,100389.82
2023-06-26T18:36:30.475Z,100392.95
2023-06-26T18:39:06.385Z,100390.83
2023-06-26T18:41:39.364Z,100388.01
2023-06-26T18:44:13.434Z,100387.14
2023-06-26T18:46:50.637Z,100378.70
2023-06-26T18:49:26.189Z,100372.23
2023-06-26T18:52:00.634Z,100367.44
2023-06-26T18:54:34.799Z,100365.50
2023-06-26T18:57:09.915Z,100365.73
2023-06-26T18:59:44.484Z,100361.80
2023-06-26T19:02:20.393Z,100359.85
2023-06-26T19:04:56.123Z,100356.47
2023-06-26T19:07:32.917Z,100352.02
2023-06-26T19:10:13.084Z,100350.07
2023-06-26T19:12:48.314Z,100348.31
2023-06-26T19:15:26.358Z,100345.45
2023-06-26T19:18:01.280Z,100343.48
2023-06-26T19:20:37.742Z,100343.30
2023-06-26T19:23:12.601Z,100344.05
2023-06-26T19:25:50.434Z,100345.88
2023-06-26T19:28:24.649Z,100347.52
2023-06-26T19:30:59.775Z,100347.90
2023-06-26T19:33:38.065Z,100342.52
2023-06-26T19:36:16.403Z,100338.21
2023-06-26T19:38:53.227Z,100337.15
2023-06-26T19:41:27.738Z,100336.45
2023-06-26T19:44:03.301Z,100336.28
2023-06-26T19:46:40.986Z,100332.69
2023-06-26T19:49:15.474Z,100328.39
2023-06-26T19:51:49.824Z,100327.67
2023-06-26T19:54:25.836Z,100327.31
2023-06-26T19:57:01.145Z,100326.61
2023-06-26T19:59:34.618Z,100321.41
2023-06-26T20:02:10.470Z,100320.51
2023-06-26T20:04:47.545Z,100316.00
2023-06-26T20:07:21.479Z,100308.10
2023-06-26T20:10:00.047Z,100303.60
2023-06-26T20:12:34.857Z,100300.90
2023-06-26T20:15:12.078Z,100298.38
2023-06-26T20:17:46.861Z,100296.95
2023-06-26T20:20:21.919Z,100300.39
2023-06-26T20:22:55.492Z,100300.58
2023-06-26T20:25:31.011Z,100295.91
2023-06-26T20:28:06.088Z,100294.11
2023-06-26T20:30:40.719Z,100295.91
2023-06-26T20:33:18.109Z,100300.80
2023-06-26T20:35:51.852Z,100303.48
2023-06-26T20:38:26.222Z,100307.64
2023-06-26T20:41:01.340Z,100313.23
2023-06-26T20:43:37.578Z,100315.20
2023-06-26T20:46:16.780Z,100323.13
2023-06-26T20:48:53.209Z,100342.94
2023-06-26T20:51:29.166Z,100398.94
2023-06-26T20:54:08.688Z,100465.89
2023-06-26T20:56:43.492Z,100501.19
2023-06-26T20:59:18.364Z,100512.30
2023-06-26T21:01:58.694Z,100527.29
2023-06-26T21:04:36.557Z,100541.20
2023-06-26T21:07:14.812Z,100550.92
2023-06-26T21:09:49.334Z,100561.75
2023-06-26T21:12:25.215Z,100561.48
2023-06-26T21:15:00.049Z,100559.63
2023-06-26T21:17:40.160Z,100553.27
2023-06-26T21:20:15.947Z,100551.17
2023-06-26T21:22:51.121Z,100561.36
2023-06-26T21:25:26.576Z,100566.25
2023-06-26T21:28:02.821Z,100572.30
2023-06-26T21:30:39.005Z,100573.35
2023-06-26T21:33:18.935Z,100571.11
2023-06-26T21:35:54.035Z,100577.45
2023-06-26T21:38:28.819Z,100574.55
2023-06-26T21:41:07.162Z,100565.06
2023-06-26T21:43:54.867Z,100559.58
2023-06-26T21:46:31.687Z,100554.03
2023-06-26T21:49:14.397Z,100552.10
2023-06-26T21:51:55.382Z,100541.48
2023-06-26T21:54:34.087Z,100532.23
2023-06-26T21:57:13.952Z,100530.01
2023-06-26T21:59:52.631Z,100522.73
2023-06-26T22:02:28.226Z,100508.46
2023-06-26T22:05:10.303Z,100496.14
2023-06-26T22:07:55.731Z,100486.14
2023-06-26T22:10:32.388Z,100485.25
2023-06-26T22:13:19.277Z,100484.72
2023-06-26T22:15:56.272Z,100487.96
2023-06-26T22:18:32.956Z,100490.13
2023-06-26T22:21:09.086Z,100489.58
2023-06-26T22:23:48.635Z,100491.36
2023-06-26T22:26:24.742Z,100487.95
2023-06-26T22:29:03.288Z,100476.69
2023-06-26T22:31:46.009Z,100454.85
2023-06-26T22:34:23.284Z,100443.59
2023-06-26T22:37:01.038Z,100436.04
2023-06-26T22:39:35.438Z,100430.43
2023-06-26T22:42:14.911Z,100424.86
2023-06-26T22:44:50.939Z,100415.48
2023-06-26T22:47:29.896Z,100408.79
2023-06-26T22:50:07.361Z,100400.83
2023-06-26T22:52:48.117Z,100405.41
2023-06-26T22:55:24.513Z,100403.90
2023-06-26T22:58:01.007Z,100401.88
2023-06-26T23:00:36.644Z,100399.66
2023-06-26T23:03:13.222Z,100403.20
2023-06-26T23:05:58.656Z,100402.96
2023-06-26T23:08:36.557Z,100402.50
2023-06-26T23:11:13.474Z,100404.98
2023-06-26T23:13:49.671Z,100397.45
2023-06-26T23:16:27.547Z,100392.08
2023-06-26T23:19:04.302Z,100391.98
2023-06-26T23:21:39.481Z,100385.25
2023-06-26T23:24:15.128Z,100387.13
2023-06-26T23:26:51.067Z,100385.83
2023-06-26T23:29:25.721Z,100383.59
2023-06-26T23:32:01.743Z,100380.16
2023-06-26T23:34:40.862Z,100379.73
2023-06-26T23:37:16.769Z,100380.04
2023-06-26T23:39:52.264Z,100379.27
2023-06-26T23:42:28.803Z,100385.48
2023-06-26T23:45:04.228Z,100387.75
2023-06-26T23:47:40.290Z,100387.21
2023-06-26T23:50:18.973Z,100390.23
2023-06-26T23:52:54.513Z,100397.70
2023-06-26T23:55:30.880Z,100403.02
2023-06-26T23:58:07.097Z,100404.94
